WI87 weather

Pine River Airport
Merrill, Wisconsin, United States

Public forecast

Using degrees Fahrenheit for public forecast. Weather courtesy of forecast.io.

METAR (pilot weather report)

Closest report is Merrill Municipal Airport, 8.0 nm (14.8 km) W. Retrieved 2019/08/24 21:35 UTC (0 seconds ago):

KRRL 242135Z AUTO 16006KT 10SM SCT049 22/11 A3025 RMK AO2 T02220111 TSNO

TAF (pilot weather forecast)

Closest forecast is Wausau Downtown Airport, 17.2 nm (31.8 km) SSW. Retrieved 2019/08/24 18:30 UTC (3 hours ago):

TAF KAUW 241729Z 2418/2518 14009KT P6SM BKN045 FM242100 14007KT P6SM SCT045 FM250100 12003KT P6SM SCT200 FM251500 14009KT P6SM SCT030 SCT150